sensor_id;sensor_type;location;lat;lon;timestamp;P1;durP1;ratioP1;P2;durP2;ratioP2
60851;SDS011;48553;50.766;2.900;2024-03-08T00:00:38;26.98;;;11.98;;
60851;SDS011;48553;50.766;2.900;2024-03-08T00:03:40;26.50;;;12.85;;
60851;SDS011;48553;50.766;2.900;2024-03-08T00:06:41;26.27;;;11.98;;
60851;SDS011;48553;50.766;2.900;2024-03-08T00:09:41;25.58;;;12.30;;
60851;SDS011;48553;50.766;2.900;2024-03-08T00:12:43;25.35;;;11.93;;
60851;SDS011;48553;50.766;2.900;2024-03-08T00:15:45;25.52;;;12.43;;
60851;SDS011;48553;50.766;2.900;2024-03-08T00:18:45;25.25;;;11.55;;
60851;SDS011;48553;50.766;2.900;2024-03-08T00:21:46;27.73;;;12.05;;
60851;SDS011;48553;50.766;2.900;2024-03-08T00:24:46;25.35;;;12.35;;
60851;SDS011;48553;50.766;2.900;2024-03-08T00:27:47;24.08;;;12.02;;
60851;SDS011;48553;50.766;2.900;2024-03-08T00:30:49;28.50;;;12.88;;
60851;SDS011;48553;50.766;2.900;2024-03-08T00:33:49;26.70;;;12.10;;
60851;SDS011;48553;50.766;2.900;2024-03-08T00:36:50;25.45;;;12.68;;
60851;SDS011;48553;50.766;2.900;2024-03-08T00:39:52;25.70;;;12.50;;
60851;SDS011;48553;50.766;2.900;2024-03-08T00:42:53;25.98;;;12.30;;
60851;SDS011;48553;50.766;2.900;2024-03-08T00:45:53;26.73;;;12.40;;
60851;SDS011;48553;50.766;2.900;2024-03-08T00:48:54;28.20;;;12.18;;
60851;SDS011;48553;50.766;2.900;2024-03-08T00:51:55;26.63;;;11.73;;
60851;SDS011;48553;50.766;2.900;2024-03-08T00:54:55;24.17;;;12.05;;
60851;SDS011;48553;50.766;2.900;2024-03-08T00:57:56;24.27;;;11.65;;
60851;SDS011;48553;50.766;2.900;2024-03-08T01:00:57;29.58;;;12.52;;
60851;SDS011;48553;50.766;2.900;2024-03-08T01:03:57;24.77;;;11.75;;
60851;SDS011;48553;50.766;2.900;2024-03-08T01:06:59;23.73;;;11.30;;
60851;SDS011;48553;50.766;2.900;2024-03-08T01:09:59;27.42;;;12.05;;
60851;SDS011;48553;50.766;2.900;2024-03-08T01:13:00;24.08;;;11.98;;
60851;SDS011;48553;50.766;2.900;2024-03-08T01:16:01;25.85;;;12.35;;
60851;SDS011;48553;50.766;2.900;2024-03-08T01:19:01;28.92;;;12.23;;
60851;SDS011;48553;50.766;2.900;2024-03-08T01:22:03;25.73;;;12.02;;
60851;SDS011;48553;50.766;2.900;2024-03-08T01:25:03;27.33;;;12.00;;
60851;SDS011;48553;50.766;2.900;2024-03-08T01:28:04;26.48;;;12.18;;
60851;SDS011;48553;50.766;2.900;2024-03-08T01:31:05;25.88;;;12.70;;
60851;SDS011;48553;50.766;2.900;2024-03-08T01:34:05;27.67;;;13.02;;
60851;SDS011;48553;50.766;2.900;2024-03-08T01:37:06;28.10;;;13.38;;
60851;SDS011;48553;50.766;2.900;2024-03-08T01:40:07;27.95;;;12.35;;
60851;SDS011;48553;50.766;2.900;2024-03-08T01:43:27;28.42;;;12.38;;
60851;SDS011;48553;50.766;2.900;2024-03-08T01:46:29;26.63;;;12.43;;
60851;SDS011;48553;50.766;2.900;2024-03-08T01:49:30;25.85;;;12.05;;
60851;SDS011;48553;50.766;2.900;2024-03-08T01:52:34;29.70;;;12.95;;
60851;SDS011;48553;50.766;2.900;2024-03-08T01:55:36;31.05;;;12.68;;
60851;SDS011;48553;50.766;2.900;2024-03-08T01:58:38;31.40;;;12.80;;
60851;SDS011;48553;50.766;2.900;2024-03-08T02:01:39;27.23;;;12.25;;
60851;SDS011;48553;50.766;2.900;2024-03-08T02:04:40;27.13;;;11.55;;
60851;SDS011;48553;50.766;2.900;2024-03-08T02:07:41;28.60;;;13.25;;
60851;SDS011;48553;50.766;2.900;2024-03-08T02:10:44;24.63;;;12.52;;
60851;SDS011;48553;50.766;2.900;2024-03-08T02:13:44;32.58;;;13.18;;
60851;SDS011;48553;50.766;2.900;2024-03-08T02:16:45;28.98;;;13.18;;
60851;SDS011;48553;50.766;2.900;2024-03-08T02:19:45;27.77;;;12.70;;
60851;SDS011;48553;50.766;2.900;2024-03-08T02:22:47;25.58;;;11.65;;
60851;SDS011;48553;50.766;2.900;2024-03-08T02:25:48;28.08;;;12.63;;
60851;SDS011;48553;50.766;2.900;2024-03-08T02:28:49;29.15;;;12.45;;
60851;SDS011;48553;50.766;2.900;2024-03-08T02:31:53;24.40;;;11.93;;
60851;SDS011;48553;50.766;2.900;2024-03-08T02:34:56;26.92;;;12.40;;
60851;SDS011;48553;50.766;2.900;2024-03-08T02:37:59;26.83;;;11.73;;
60851;SDS011;48553;50.766;2.900;2024-03-08T02:41:00;29.63;;;12.75;;
60851;SDS011;48553;50.766;2.900;2024-03-08T02:44:00;30.17;;;12.38;;
60851;SDS011;48553;50.766;2.900;2024-03-08T02:47:01;27.70;;;11.98;;
60851;SDS011;48553;50.766;2.900;2024-03-08T02:50:01;26.35;;;11.63;;
60851;SDS011;48553;50.766;2.900;2024-03-08T02:53:03;25.90;;;11.25;;
60851;SDS011;48553;50.766;2.900;2024-03-08T02:56:04;28.08;;;11.98;;
60851;SDS011;48553;50.766;2.900;2024-03-08T02:59:08;26.00;;;11.67;;
60851;SDS011;48553;50.766;2.900;2024-03-08T03:02:08;26.27;;;12.07;;
60851;SDS011;48553;50.766;2.900;2024-03-08T03:05:10;29.00;;;11.65;;
60851;SDS011;48553;50.766;2.900;2024-03-08T03:08:11;25.67;;;11.55;;
60851;SDS011;48553;50.766;2.900;2024-03-08T03:11:13;25.73;;;11.73;;
60851;SDS011;48553;50.766;2.900;2024-03-08T03:14:13;26.15;;;11.60;;
60851;SDS011;48553;50.766;2.900;2024-03-08T03:17:14;30.33;;;11.40;;
60851;SDS011;48553;50.766;2.900;2024-03-08T03:20:14;27.58;;;11.80;;
60851;SDS011;48553;50.766;2.900;2024-03-08T03:23:15;27.90;;;12.07;;
60851;SDS011;48553;50.766;2.900;2024-03-08T03:29:21;27.35;;;11.45;;
60851;SDS011;48553;50.766;2.900;2024-03-08T03:32:22;26.88;;;11.18;;
60851;SDS011;48553;50.766;2.900;2024-03-08T03:35:23;28.27;;;12.25;;
60851;SDS011;48553;50.766;2.900;2024-03-08T03:38:24;25.77;;;10.77;;
60851;SDS011;48553;50.766;2.900;2024-03-08T03:41:26;25.15;;;11.30;;
60851;SDS011;48553;50.766;2.900;2024-03-08T03:44:26;30.65;;;11.73;;
60851;SDS011;48553;50.766;2.900;2024-03-08T03:47:26;24.75;;;11.02;;
60851;SDS011;48553;50.766;2.900;2024-03-08T03:50:27;27.88;;;11.35;;
60851;SDS011;48553;50.766;2.900;2024-03-08T03:53:27;26.77;;;11.68;;
60851;SDS011;48553;50.766;2.900;2024-03-08T03:56:28;27.48;;;11.98;;
60851;SDS011;48553;50.766;2.900;2024-03-08T03:59:28;26.33;;;11.55;;
60851;SDS011;48553;50.766;2.900;2024-03-08T04:02:29;26.33;;;11.77;;
60851;SDS011;48553;50.766;2.900;2024-03-08T04:05:30;28.40;;;11.43;;
60851;SDS011;48553;50.766;2.900;2024-03-08T04:08:31;26.40;;;11.88;;
60851;SDS011;48553;50.766;2.900;2024-03-08T04:11:34;29.05;;;12.07;;
60851;SDS011;48553;50.766;2.900;2024-03-08T04:14:34;27.05;;;12.00;;
60851;SDS011;48553;50.766;2.900;2024-03-08T04:17:35;26.95;;;11.63;;
60851;SDS011;48553;50.766;2.900;2024-03-08T04:20:39;29.92;;;13.00;;
60851;SDS011;48553;50.766;2.900;2024-03-08T04:23:40;28.50;;;12.02;;
60851;SDS011;48553;50.766;2.900;2024-03-08T04:26:40;29.30;;;12.23;;
60851;SDS011;48553;50.766;2.900;2024-03-08T04:29:41;29.00;;;12.02;;
60851;SDS011;48553;50.766;2.900;2024-03-08T04:32:41;27.65;;;12.38;;
60851;SDS011;48553;50.766;2.900;2024-03-08T04:35:42;29.92;;;12.32;;
60851;SDS011;48553;50.766;2.900;2024-03-08T04:38:46;33.25;;;13.43;;
60851;SDS011;48553;50.766;2.900;2024-03-08T04:41:46;33.22;;;13.10;;
60851;SDS011;48553;50.766;2.900;2024-03-08T04:44:46;30.70;;;12.82;;
60851;SDS011;48553;50.766;2.900;2024-03-08T04:47:47;30.17;;;12.60;;
60851;SDS011;48553;50.766;2.900;2024-03-08T04:50:48;29.15;;;12.10;;
60851;SDS011;48553;50.766;2.900;2024-03-08T04:53:49;31.98;;;13.02;;
60851;SDS011;48553;50.766;2.900;2024-03-08T04:56:49;31.65;;;13.80;;
60851;SDS011;48553;50.766;2.900;2024-03-08T04:59:50;29.80;;;12.68;;
60851;SDS011;48553;50.766;2.900;2024-03-08T05:02:50;27.88;;;12.60;;
60851;SDS011;48553;50.766;2.900;2024-03-08T05:05:53;33.13;;;12.98;;
60851;SDS011;48553;50.766;2.900;2024-03-08T05:08:53;31.90;;;13.75;;
60851;SDS011;48553;50.766;2.900;2024-03-08T05:11:53;32.60;;;13.95;;
60851;SDS011;48553;50.766;2.900;2024-03-08T05:14:54;30.92;;;12.95;;
60851;SDS011;48553;50.766;2.900;2024-03-08T05:17:55;35.40;;;13.63;;
60851;SDS011;48553;50.766;2.900;2024-03-08T05:20:58;30.67;;;13.30;;
60851;SDS011;48553;50.766;2.900;2024-03-08T05:23:58;33.58;;;13.38;;
60851;SDS011;48553;50.766;2.900;2024-03-08T05:26:58;31.70;;;13.25;;
60851;SDS011;48553;50.766;2.900;2024-03-08T05:30:02;36.20;;;14.38;;
60851;SDS011;48553;50.766;2.900;2024-03-08T05:33:04;30.75;;;14.05;;
60851;SDS011;48553;50.766;2.900;2024-03-08T05:36:05;33.17;;;14.13;;
60851;SDS011;48553;50.766;2.900;2024-03-08T05:39:06;30.70;;;13.13;;
60851;SDS011;48553;50.766;2.900;2024-03-08T05:42:07;32.00;;;13.18;;
60851;SDS011;48553;50.766;2.900;2024-03-08T05:45:08;31.83;;;14.02;;
60851;SDS011;48553;50.766;2.900;2024-03-08T05:48:13;30.45;;;13.07;;
60851;SDS011;48553;50.766;2.900;2024-03-08T05:51:13;33.30;;;13.88;;
60851;SDS011;48553;50.766;2.900;2024-03-08T05:54:14;30.52;;;14.32;;
60851;SDS011;48553;50.766;2.900;2024-03-08T05:57:14;31.85;;;14.10;;
60851;SDS011;48553;50.766;2.900;2024-03-08T06:00:14;32.58;;;14.25;;
60851;SDS011;48553;50.766;2.900;2024-03-08T06:03:15;33.63;;;14.52;;
60851;SDS011;48553;50.766;2.900;2024-03-08T06:06:16;32.30;;;14.32;;
60851;SDS011;48553;50.766;2.900;2024-03-08T06:09:17;31.77;;;14.10;;
60851;SDS011;48553;50.766;2.900;2024-03-08T06:15:24;34.00;;;14.80;;
60851;SDS011;48553;50.766;2.900;2024-03-08T06:18:24;30.77;;;14.27;;
60851;SDS011;48553;50.766;2.900;2024-03-08T06:21:24;30.05;;;14.10;;
60851;SDS011;48553;50.766;2.900;2024-03-08T06:24:28;35.65;;;14.80;;
60851;SDS011;48553;50.766;2.900;2024-03-08T06:27:28;36.17;;;14.93;;
60851;SDS011;48553;50.766;2.900;2024-03-08T06:30:29;33.85;;;15.27;;
60851;SDS011;48553;50.766;2.900;2024-03-08T06:33:29;37.15;;;15.60;;
60851;SDS011;48553;50.766;2.900;2024-03-08T06:36:32;32.55;;;15.30;;
60851;SDS011;48553;50.766;2.900;2024-03-08T06:39:33;34.42;;;14.93;;
60851;SDS011;48553;50.766;2.900;2024-03-08T06:42:35;30.45;;;14.35;;
60851;SDS011;48553;50.766;2.900;2024-03-08T06:45:36;33.90;;;15.23;;
60851;SDS011;48553;50.766;2.900;2024-03-08T06:48:38;32.28;;;15.23;;
60851;SDS011;48553;50.766;2.900;2024-03-08T06:51:39;37.47;;;15.50;;
60851;SDS011;48553;50.766;2.900;2024-03-08T06:54:41;33.70;;;15.93;;
60851;SDS011;48553;50.766;2.900;2024-03-08T06:57:41;34.92;;;15.93;;
60851;SDS011;48553;50.766;2.900;2024-03-08T07:00:42;35.28;;;15.20;;
60851;SDS011;48553;50.766;2.900;2024-03-08T07:03:44;32.72;;;15.35;;
60851;SDS011;48553;50.766;2.900;2024-03-08T07:06:44;35.90;;;16.27;;
60851;SDS011;48553;50.766;2.900;2024-03-08T07:09:45;34.22;;;15.95;;
60851;SDS011;48553;50.766;2.900;2024-03-08T07:12:45;39.78;;;15.52;;
60851;SDS011;48553;50.766;2.900;2024-03-08T07:15:46;33.08;;;15.63;;
60851;SDS011;48553;50.766;2.900;2024-03-08T07:18:47;33.83;;;16.10;;
60851;SDS011;48553;50.766;2.900;2024-03-08T07:21:47;37.92;;;16.05;;
60851;SDS011;48553;50.766;2.900;2024-03-08T07:24:48;34.75;;;15.75;;
60851;SDS011;48553;50.766;2.900;2024-03-08T07:28:07;37.10;;;16.38;;
60851;SDS011;48553;50.766;2.900;2024-03-08T07:31:07;36.00;;;16.38;;
60851;SDS011;48553;50.766;2.900;2024-03-08T07:34:16;37.00;;;16.25;;
60851;SDS011;48553;50.766;2.900;2024-03-08T07:37:17;34.30;;;15.85;;
60851;SDS011;48553;50.766;2.900;2024-03-08T07:40:19;37.08;;;16.10;;
60851;SDS011;48553;50.766;2.900;2024-03-08T07:43:19;37.15;;;16.38;;
60851;SDS011;48553;50.766;2.900;2024-03-08T07:46:19;33.45;;;15.38;;
60851;SDS011;48553;50.766;2.900;2024-03-08T07:49:20;34.92;;;16.65;;
60851;SDS011;48553;50.766;2.900;2024-03-08T07:52:20;33.80;;;16.70;;
60851;SDS011;48553;50.766;2.900;2024-03-08T07:55:21;33.47;;;16.27;;
60851;SDS011;48553;50.766;2.900;2024-03-08T07:58:24;37.15;;;17.25;;
60851;SDS011;48553;50.766;2.900;2024-03-08T08:01:24;36.05;;;16.75;;
60851;SDS011;48553;50.766;2.900;2024-03-08T08:04:25;38.47;;;16.98;;
60851;SDS011;48553;50.766;2.900;2024-03-08T08:07:26;38.15;;;17.05;;
60851;SDS011;48553;50.766;2.900;2024-03-08T08:10:27;34.40;;;16.40;;
60851;SDS011;48553;50.766;2.900;2024-03-08T08:13:28;33.20;;;16.08;;
60851;SDS011;48553;50.766;2.900;2024-03-08T08:16:32;31.88;;;15.80;;
60851;SDS011;48553;50.766;2.900;2024-03-08T08:19:32;36.97;;;16.75;;
60851;SDS011;48553;50.766;2.900;2024-03-08T08:22:33;33.38;;;16.63;;
60851;SDS011;48553;50.766;2.900;2024-03-08T08:25:33;34.33;;;16.05;;
60851;SDS011;48553;50.766;2.900;2024-03-08T08:28:34;31.73;;;15.25;;
60851;SDS011;48553;50.766;2.900;2024-03-08T08:31:34;34.03;;;16.10;;
60851;SDS011;48553;50.766;2.900;2024-03-08T08:34:35;30.60;;;15.30;;
60851;SDS011;48553;50.766;2.900;2024-03-08T08:37:38;33.92;;;16.55;;
60851;SDS011;48553;50.766;2.900;2024-03-08T08:40:39;34.50;;;16.10;;
60851;SDS011;48553;50.766;2.900;2024-03-08T08:43:39;33.40;;;16.40;;
60851;SDS011;48553;50.766;2.900;2024-03-08T08:46:43;34.38;;;15.70;;
60851;SDS011;48553;50.766;2.900;2024-03-08T08:49:44;33.50;;;15.40;;
60851;SDS011;48553;50.766;2.900;2024-03-08T08:52:46;35.13;;;15.88;;
60851;SDS011;48553;50.766;2.900;2024-03-08T08:55:47;30.33;;;15.48;;
60851;SDS011;48553;50.766;2.900;2024-03-08T08:58:47;32.33;;;15.65;;
60851;SDS011;48553;50.766;2.900;2024-03-08T09:01:49;32.80;;;15.57;;
60851;SDS011;48553;50.766;2.900;2024-03-08T09:04:50;31.27;;;15.48;;
60851;SDS011;48553;50.766;2.900;2024-03-08T09:07:50;30.73;;;15.52;;
60851;SDS011;48553;50.766;2.900;2024-03-08T09:10:51;32.58;;;16.00;;
60851;SDS011;48553;50.766;2.900;2024-03-08T09:13:51;33.47;;;15.68;;
60851;SDS011;48553;50.766;2.900;2024-03-08T09:16:53;31.60;;;15.35;;
60851;SDS011;48553;50.766;2.900;2024-03-08T09:19:53;28.20;;;15.43;;
60851;SDS011;48553;50.766;2.900;2024-03-08T09:22:54;33.58;;;15.57;;
60851;SDS011;48553;50.766;2.900;2024-03-08T09:25:54;29.88;;;14.77;;
60851;SDS011;48553;50.766;2.900;2024-03-08T09:28:55;33.65;;;15.55;;
60851;SDS011;48553;50.766;2.900;2024-03-08T09:31:55;31.42;;;14.95;;
60851;SDS011;48553;50.766;2.900;2024-03-08T09:34:56;28.33;;;14.88;;
60851;SDS011;48553;50.766;2.900;2024-03-08T09:37:56;32.15;;;15.32;;
60851;SDS011;48553;50.766;2.900;2024-03-08T09:40:57;29.42;;;14.63;;
60851;SDS011;48553;50.766;2.900;2024-03-08T09:43:57;30.38;;;15.10;;
60851;SDS011;48553;50.766;2.900;2024-03-08T09:46:59;29.70;;;14.32;;
60851;SDS011;48553;50.766;2.900;2024-03-08T09:50:02;28.02;;;14.75;;
60851;SDS011;48553;50.766;2.900;2024-03-08T09:53:03;31.17;;;14.73;;
60851;SDS011;48553;50.766;2.900;2024-03-08T09:56:04;28.52;;;14.48;;
60851;SDS011;48553;50.766;2.900;2024-03-08T09:59:05;32.22;;;15.00;;
60851;SDS011;48553;50.766;2.900;2024-03-08T10:02:25;28.40;;;14.25;;
60851;SDS011;48553;50.766;2.900;2024-03-08T10:05:26;28.52;;;14.43;;
60851;SDS011;48553;50.766;2.900;2024-03-08T10:08:27;29.25;;;14.25;;
60851;SDS011;48553;50.766;2.900;2024-03-08T10:11:30;28.23;;;14.40;;
60851;SDS011;48553;50.766;2.900;2024-03-08T10:14:31;26.92;;;14.27;;
60851;SDS011;48553;50.766;2.900;2024-03-08T10:17:31;29.70;;;14.70;;
60851;SDS011;48553;50.766;2.900;2024-03-08T10:20:32;28.17;;;14.73;;
60851;SDS011;48553;50.766;2.900;2024-03-08T10:23:34;28.42;;;14.85;;
60851;SDS011;48553;50.766;2.900;2024-03-08T10:26:34;27.13;;;14.18;;
60851;SDS011;48553;50.766;2.900;2024-03-08T10:29:37;27.55;;;14.15;;
60851;SDS011;48553;50.766;2.900;2024-03-08T10:32:41;29.00;;;14.93;;
60851;SDS011;48553;50.766;2.900;2024-03-08T10:35:42;27.42;;;14.27;;
60851;SDS011;48553;50.766;2.900;2024-03-08T10:38:43;30.95;;;14.90;;
60851;SDS011;48553;50.766;2.900;2024-03-08T10:41:48;29.50;;;14.83;;
60851;SDS011;48553;50.766;2.900;2024-03-08T10:45:08;28.77;;;15.18;;
60851;SDS011;48553;50.766;2.900;2024-03-08T10:48:26;27.95;;;14.60;;
60851;SDS011;48553;50.766;2.900;2024-03-08T10:51:32;27.88;;;14.43;;
60851;SDS011;48553;50.766;2.900;2024-03-08T10:54:32;26.70;;;14.52;;
60851;SDS011;48553;50.766;2.900;2024-03-08T10:57:34;28.50;;;14.70;;
60851;SDS011;48553;50.766;2.900;2024-03-08T11:00:38;28.17;;;14.63;;
60851;SDS011;48553;50.766;2.900;2024-03-08T11:06:45;29.92;;;14.93;;
60851;SDS011;48553;50.766;2.900;2024-03-08T11:09:47;30.58;;;15.20;;
60851;SDS011;48553;50.766;2.900;2024-03-08T11:12:48;29.83;;;14.80;;
60851;SDS011;48553;50.766;2.900;2024-03-08T11:15:49;28.08;;;14.10;;
60851;SDS011;48553;50.766;2.900;2024-03-08T11:18:49;28.20;;;14.40;;
60851;SDS011;48553;50.766;2.900;2024-03-08T11:21:59;29.00;;;14.68;;
60851;SDS011;48553;50.766;2.900;2024-03-08T11:25:04;27.48;;;14.85;;
60851;SDS011;48553;50.766;2.900;2024-03-08T11:28:10;28.98;;;14.88;;
60851;SDS011;48553;50.766;2.900;2024-03-08T11:31:23;28.42;;;14.70;;
60851;SDS011;48553;50.766;2.900;2024-03-08T11:34:25;25.63;;;13.65;;
60851;SDS011;48553;50.766;2.900;2024-03-08T11:37:26;29.00;;;15.38;;
60851;SDS011;48553;50.766;2.900;2024-03-08T11:40:30;27.00;;;14.07;;
60851;SDS011;48553;50.766;2.900;2024-03-08T11:43:33;26.25;;;14.45;;
60851;SDS011;48553;50.766;2.900;2024-03-08T11:46:33;28.60;;;14.18;;
60851;SDS011;48553;50.766;2.900;2024-03-08T11:49:34;30.00;;;14.85;;
60851;SDS011;48553;50.766;2.900;2024-03-08T11:52:34;27.42;;;14.48;;
60851;SDS011;48553;50.766;2.900;2024-03-08T11:55:35;25.90;;;13.63;;
60851;SDS011;48553;50.766;2.900;2024-03-08T11:58:35;27.10;;;14.57;;
60851;SDS011;48553;50.766;2.900;2024-03-08T12:01:37;27.98;;;14.55;;
60851;SDS011;48553;50.766;2.900;2024-03-08T12:04:37;26.08;;;14.55;;
60851;SDS011;48553;50.766;2.900;2024-03-08T12:07:38;28.15;;;14.48;;
60851;SDS011;48553;50.766;2.900;2024-03-08T12:10:39;27.13;;;15.10;;
60851;SDS011;48553;50.766;2.900;2024-03-08T12:13:41;25.52;;;13.77;;
60851;SDS011;48553;50.766;2.900;2024-03-08T12:16:41;29.67;;;14.23;;
60851;SDS011;48553;50.766;2.900;2024-03-08T12:19:45;27.25;;;13.65;;
60851;SDS011;48553;50.766;2.900;2024-03-08T12:22:47;27.48;;;14.57;;
60851;SDS011;48553;50.766;2.900;2024-03-08T12:25:48;26.95;;;13.82;;
60851;SDS011;48553;50.766;2.900;2024-03-08T12:28:49;24.75;;;13.75;;
60851;SDS011;48553;50.766;2.900;2024-03-08T12:31:57;25.88;;;14.38;;
60851;SDS011;48553;50.766;2.900;2024-03-08T12:35:00;28.35;;;13.98;;
60851;SDS011;48553;50.766;2.900;2024-03-08T12:38:04;25.90;;;13.93;;
60851;SDS011;48553;50.766;2.900;2024-03-08T12:41:06;29.27;;;14.52;;
60851;SDS011;48553;50.766;2.900;2024-03-08T12:44:08;27.25;;;14.35;;
60851;SDS011;48553;50.766;2.900;2024-03-08T12:47:11;28.10;;;14.88;;
60851;SDS011;48553;50.766;2.900;2024-03-08T12:50:11;26.52;;;14.30;;
60851;SDS011;48553;50.766;2.900;2024-03-08T12:53:11;27.30;;;13.73;;
60851;SDS011;48553;50.766;2.900;2024-03-08T12:56:14;26.80;;;14.45;;
60851;SDS011;48553;50.766;2.900;2024-03-08T12:59:28;26.13;;;14.30;;
60851;SDS011;48553;50.766;2.900;2024-03-08T13:02:28;24.25;;;14.23;;
60851;SDS011;48553;50.766;2.900;2024-03-08T13:05:31;26.83;;;13.98;;
60851;SDS011;48553;50.766;2.900;2024-03-08T13:08:31;26.15;;;14.05;;
60851;SDS011;48553;50.766;2.900;2024-03-08T13:11:35;26.50;;;14.18;;
60851;SDS011;48553;50.766;2.900;2024-03-08T13:14:36;27.33;;;14.00;;
60851;SDS011;48553;50.766;2.900;2024-03-08T13:17:37;24.52;;;13.73;;
60851;SDS011;48553;50.766;2.900;2024-03-08T13:20:40;26.27;;;14.30;;
60851;SDS011;48553;50.766;2.900;2024-03-08T13:23:43;26.48;;;14.25;;
60851;SDS011;48553;50.766;2.900;2024-03-08T13:26:49;25.88;;;14.60;;
60851;SDS011;48553;50.766;2.900;2024-03-08T13:29:50;25.88;;;13.68;;
60851;SDS011;48553;50.766;2.900;2024-03-08T13:32:51;28.55;;;13.63;;
60851;SDS011;48553;50.766;2.900;2024-03-08T13:35:55;25.15;;;14.05;;
60851;SDS011;48553;50.766;2.900;2024-03-08T13:38:57;25.15;;;13.65;;
60851;SDS011;48553;50.766;2.900;2024-03-08T13:41:59;26.63;;;13.85;;
60851;SDS011;48553;50.766;2.900;2024-03-08T13:44:59;25.23;;;13.65;;
60851;SDS011;48553;50.766;2.900;2024-03-08T13:47:59;25.95;;;13.82;;
60851;SDS011;48553;50.766;2.900;2024-03-08T13:51:00;23.98;;;12.98;;
60851;SDS011;48553;50.766;2.900;2024-03-08T13:54:00;27.58;;;13.88;;
60851;SDS011;48553;50.766;2.900;2024-03-08T13:57:01;25.33;;;13.98;;
60851;SDS011;48553;50.766;2.900;2024-03-08T14:00:03;23.98;;;13.65;;
60851;SDS011;48553;50.766;2.900;2024-03-08T14:03:07;25.02;;;13.30;;
60851;SDS011;48553;50.766;2.900;2024-03-08T14:06:07;28.50;;;13.40;;
60851;SDS011;48553;50.766;2.900;2024-03-08T14:09:09;26.30;;;13.50;;
60851;SDS011;48553;50.766;2.900;2024-03-08T14:12:12;24.63;;;12.93;;
60851;SDS011;48553;50.766;2.900;2024-03-08T14:15:13;25.75;;;13.48;;
60851;SDS011;48553;50.766;2.900;2024-03-08T14:18:15;24.33;;;13.75;;
60851;SDS011;48553;50.766;2.900;2024-03-08T14:21:17;23.88;;;12.75;;
60851;SDS011;48553;50.766;2.900;2024-03-08T14:24:17;23.30;;;12.80;;
60851;SDS011;48553;50.766;2.900;2024-03-08T14:27:18;24.90;;;12.48;;
60851;SDS011;48553;50.766;2.900;2024-03-08T14:30:19;23.77;;;12.75;;
60851;SDS011;48553;50.766;2.900;2024-03-08T14:33:32;25.05;;;12.57;;
60851;SDS011;48553;50.766;2.900;2024-03-08T14:36:32;24.92;;;12.90;;
60851;SDS011;48553;50.766;2.900;2024-03-08T14:39:33;24.90;;;12.88;;
60851;SDS011;48553;50.766;2.900;2024-03-08T14:42:34;22.17;;;11.80;;
60851;SDS011;48553;50.766;2.900;2024-03-08T14:45:35;25.27;;;12.45;;
60851;SDS011;48553;50.766;2.900;2024-03-08T14:48:38;23.73;;;12.27;;
60851;SDS011;48553;50.766;2.900;2024-03-08T14:51:38;23.33;;;12.40;;
60851;SDS011;48553;50.766;2.900;2024-03-08T14:54:39;24.02;;;12.27;;
60851;SDS011;48553;50.766;2.900;2024-03-08T14:57:39;23.42;;;11.70;;
60851;SDS011;48553;50.766;2.900;2024-03-08T15:00:41;22.63;;;12.15;;
60851;SDS011;48553;50.766;2.900;2024-03-08T15:03:41;24.13;;;12.35;;
60851;SDS011;48553;50.766;2.900;2024-03-08T15:06:45;22.58;;;11.48;;
60851;SDS011;48553;50.766;2.900;2024-03-08T15:09:48;22.92;;;12.05;;
60851;SDS011;48553;50.766;2.900;2024-03-08T15:12:48;21.40;;;11.35;;
60851;SDS011;48553;50.766;2.900;2024-03-08T15:15:49;23.83;;;11.85;;
60851;SDS011;48553;50.766;2.900;2024-03-08T15:18:54;19.60;;;10.73;;
60851;SDS011;48553;50.766;2.900;2024-03-08T15:21:55;23.90;;;11.27;;
60851;SDS011;48553;50.766;2.900;2024-03-08T15:24:56;22.23;;;10.75;;
60851;SDS011;48553;50.766;2.900;2024-03-08T15:27:58;20.20;;;10.50;;
60851;SDS011;48553;50.766;2.900;2024-03-08T15:30:58;19.58;;;10.85;;
60851;SDS011;48553;50.766;2.900;2024-03-08T15:34:05;20.02;;;10.40;;
60851;SDS011;48553;50.766;2.900;2024-03-08T15:37:06;18.38;;;10.00;;
60851;SDS011;48553;50.766;2.900;2024-03-08T15:40:09;19.33;;;10.05;;
60851;SDS011;48553;50.766;2.900;2024-03-08T15:43:21;18.42;;;9.90;;
60851;SDS011;48553;50.766;2.900;2024-03-08T15:46:22;19.48;;;9.77;;
60851;SDS011;48553;50.766;2.900;2024-03-08T15:49:22;18.88;;;10.30;;
60851;SDS011;48553;50.766;2.900;2024-03-08T15:52:24;19.42;;;10.32;;
60851;SDS011;48553;50.766;2.900;2024-03-08T15:55:24;21.85;;;10.68;;
60851;SDS011;48553;50.766;2.900;2024-03-08T15:58:27;18.38;;;9.60;;
60851;SDS011;48553;50.766;2.900;2024-03-08T16:01:27;19.85;;;10.07;;
60851;SDS011;48553;50.766;2.900;2024-03-08T16:04:28;19.88;;;9.55;;
60851;SDS011;48553;50.766;2.900;2024-03-08T16:07:29;19.58;;;9.40;;
60851;SDS011;48553;50.766;2.900;2024-03-08T16:10:30;19.58;;;10.00;;
60851;SDS011;48553;50.766;2.900;2024-03-08T16:13:34;18.05;;;9.32;;
60851;SDS011;48553;50.766;2.900;2024-03-08T16:16:40;20.17;;;9.68;;
60851;SDS011;48553;50.766;2.900;2024-03-08T16:19:40;20.80;;;9.98;;
60851;SDS011;48553;50.766;2.900;2024-03-08T16:22:44;22.83;;;10.20;;
60851;SDS011;48553;50.766;2.900;2024-03-08T16:25:44;20.08;;;9.98;;
60851;SDS011;48553;50.766;2.900;2024-03-08T16:28:46;23.23;;;10.00;;
60851;SDS011;48553;50.766;2.900;2024-03-08T16:31:46;22.17;;;10.20;;
60851;SDS011;48553;50.766;2.900;2024-03-08T16:34:46;20.58;;;10.38;;
60851;SDS011;48553;50.766;2.900;2024-03-08T16:37:47;19.27;;;9.50;;
60851;SDS011;48553;50.766;2.900;2024-03-08T16:40:51;18.83;;;9.82;;
60851;SDS011;48553;50.766;2.900;2024-03-08T16:43:52;19.65;;;10.18;;
60851;SDS011;48553;50.766;2.900;2024-03-08T16:46:53;21.63;;;10.43;;
60851;SDS011;48553;50.766;2.900;2024-03-08T16:49:53;21.65;;;10.13;;
60851;SDS011;48553;50.766;2.900;2024-03-08T16:52:54;21.38;;;10.05;;
60851;SDS011;48553;50.766;2.900;2024-03-08T16:55:55;21.20;;;10.10;;
60851;SDS011;48553;50.766;2.900;2024-03-08T16:58:57;22.52;;;10.50;;
60851;SDS011;48553;50.766;2.900;2024-03-08T17:01:57;19.73;;;9.80;;
60851;SDS011;48553;50.766;2.900;2024-03-08T17:05:00;19.38;;;10.40;;
60851;SDS011;48553;50.766;2.900;2024-03-08T17:08:05;21.08;;;10.50;;
60851;SDS011;48553;50.766;2.900;2024-03-08T17:11:06;22.35;;;10.27;;
60851;SDS011;48553;50.766;2.900;2024-03-08T17:17:12;22.05;;;10.95;;
60851;SDS011;48553;50.766;2.900;2024-03-08T17:20:14;22.60;;;11.05;;
60851;SDS011;48553;50.766;2.900;2024-03-08T17:23:20;23.63;;;11.27;;
60851;SDS011;48553;50.766;2.900;2024-03-08T17:26:21;22.88;;;11.35;;
60851;SDS011;48553;50.766;2.900;2024-03-08T17:29:22;21.15;;;10.95;;
60851;SDS011;48553;50.766;2.900;2024-03-08T17:32:23;22.17;;;11.27;;
60851;SDS011;48553;50.766;2.900;2024-03-08T17:35:24;21.45;;;10.68;;
60851;SDS011;48553;50.766;2.900;2024-03-08T17:38:26;22.50;;;10.65;;
60851;SDS011;48553;50.766;2.900;2024-03-08T17:41:28;23.95;;;11.48;;
60851;SDS011;48553;50.766;2.900;2024-03-08T17:44:29;22.95;;;10.63;;
60851;SDS011;48553;50.766;2.900;2024-03-08T17:47:30;20.83;;;10.35;;
60851;SDS011;48553;50.766;2.900;2024-03-08T17:50:30;21.60;;;10.82;;
60851;SDS011;48553;50.766;2.900;2024-03-08T17:53:31;22.75;;;10.77;;